sensor_id;sensor_type;location;lat;lon;timestamp;temperature;humidity
3186;DHT22;1604;53.700;10.252;2023-04-01T00:02:59;9.80;99.90
3186;DHT22;1604;53.700;10.252;2023-04-01T00:06:03;9.80;99.90
3186;DHT22;1604;53.700;10.252;2023-04-01T00:09:05;9.80;99.90
3186;DHT22;1604;53.700;10.252;2023-04-01T00:12:07;9.80;99.90
3186;DHT22;1604;53.700;10.252;2023-04-01T00:15:11;9.70;99.90
3186;DHT22;1604;53.700;10.252;2023-04-01T00:18:13;9.70;99.90
3186;DHT22;1604;53.700;10.252;2023-04-01T00:21:18;9.70;99.90
3186;DHT22;1604;53.700;10.252;2023-04-01T00:24:24;9.70;99.90
3186;DHT22;1604;53.700;10.252;2023-04-01T00:27:26;9.70;99.90
3186;DHT22;1604;53.700;10.252;2023-04-01T00:30:28;9.70;99.90
3186;DHT22;1604;53.700;10.252;2023-04-01T00:33:30;9.70;99.90
3186;DHT22;1604;53.700;10.252;2023-04-01T00:36:33;9.70;99.90
3186;DHT22;1604;53.700;10.252;2023-04-01T00:39:35;9.70;99.90
3186;DHT22;1604;53.700;10.252;2023-04-01T00:42:37;9.70;99.90
3186;DHT22;1604;53.700;10.252;2023-04-01T00:45:40;9.70;99.90
3186;DHT22;1604;53.700;10.252;2023-04-01T00:48:45;9.70;99.90
3186;DHT22;1604;53.700;10.252;2023-04-01T00:51:53;9.70;99.90
3186;DHT22;1604;53.700;10.252;2023-04-01T00:54:58;9.70;99.90
3186;DHT22;1604;53.700;10.252;2023-04-01T00:58:05;9.70;99.90
3186;DHT22;1604;53.700;10.252;2023-04-01T01:01:09;9.70;99.90
3186;DHT22;1604;53.700;10.252;2023-04-01T01:04:22;9.70;99.90
3186;DHT22;1604;53.700;10.252;2023-04-01T01:07:33;9.70;99.90
3186;DHT22;1604;53.700;10.252;2023-04-01T01:10:39;9.70;99.90
3186;DHT22;1604;53.700;10.252;2023-04-01T01:13:45;9.70;99.90
3186;DHT22;1604;53.700;10.252;2023-04-01T01:16:58;9.70;99.90
3186;DHT22;1604;53.700;10.252;2023-04-01T01:27:17;9.70;99.90
3186;DHT22;1604;53.700;10.252;2023-04-01T01:30:36;9.70;99.90
3186;DHT22;1604;53.700;10.252;2023-04-01T01:33:56;9.60;99.90
3186;DHT22;1604;53.700;10.252;2023-04-01T01:37:03;9.60;99.90
3186;DHT22;1604;53.700;10.252;2023-04-01T01:40:08;9.60;99.90
3186;DHT22;1604;53.700;10.252;2023-04-01T01:43:13;9.60;99.90
3186;DHT22;1604;53.700;10.252;2023-04-01T01:46:18;9.60;99.90
3186;DHT22;1604;53.700;10.252;2023-04-01T01:49:22;9.50;99.90
3186;DHT22;1604;53.700;10.252;2023-04-01T01:52:27;9.50;99.90
3186;DHT22;1604;53.700;10.252;2023-04-01T01:55:31;9.50;99.90
3186;DHT22;1604;53.700;10.252;2023-04-01T01:58:36;9.50;99.90
3186;DHT22;1604;53.700;10.252;2023-04-01T02:01:43;9.50;99.90
3186;DHT22;1604;53.700;10.252;2023-04-01T02:04:46;9.50;99.90
3186;DHT22;1604;53.700;10.252;2023-04-01T02:07:53;9.50;99.90
3186;DHT22;1604;53.700;10.252;2023-04-01T02:10:57;9.50;99.90
3186;DHT22;1604;53.700;10.252;2023-04-01T02:14:04;9.50;99.90
3186;DHT22;1604;53.700;10.252;2023-04-01T02:17:10;9.50;99.90
3186;DHT22;1604;53.700;10.252;2023-04-01T02:20:17;9.50;99.90
3186;DHT22;1604;53.700;10.252;2023-04-01T02:23:21;9.50;99.90
3186;DHT22;1604;53.700;10.252;2023-04-01T02:26:25;9.50;99.90
3186;DHT22;1604;53.700;10.252;2023-04-01T02:29:27;9.50;99.90
3186;DHT22;1604;53.700;10.252;2023-04-01T02:32:31;9.50;99.90
3186;DHT22;1604;53.700;10.252;2023-04-01T02:35:36;9.50;99.90
3186;DHT22;1604;53.700;10.252;2023-04-01T02:38:39;9.50;99.90
3186;DHT22;1604;53.700;10.252;2023-04-01T02:41:43;9.40;99.90
3186;DHT22;1604;53.700;10.252;2023-04-01T02:44:45;9.40;99.90
3186;DHT22;1604;53.700;10.252;2023-04-01T02:47:47;9.40;99.90
3186;DHT22;1604;53.700;10.252;2023-04-01T02:50:49;9.40;99.90
3186;DHT22;1604;53.700;10.252;2023-04-01T02:53:52;9.40;99.90
3186;DHT22;1604;53.700;10.252;2023-04-01T02:56:55;9.40;99.90
3186;DHT22;1604;53.700;10.252;2023-04-01T02:59:57;9.50;99.90
3186;DHT22;1604;53.700;10.252;2023-04-01T03:02:59;9.40;99.90
3186;DHT22;1604;53.700;10.252;2023-04-01T03:06:05;9.40;99.90
3186;DHT22;1604;53.700;10.252;2023-04-01T03:09:08;9.40;99.90
3186;DHT22;1604;53.700;10.252;2023-04-01T03:12:11;9.40;99.90
3186;DHT22;1604;53.700;10.252;2023-04-01T03:15:14;9.40;99.90
3186;DHT22;1604;53.700;10.252;2023-04-01T03:18:15;9.40;99.90
3186;DHT22;1604;53.700;10.252;2023-04-01T03:21:20;9.40;99.90
3186;DHT22;1604;53.700;10.252;2023-04-01T03:24:23;9.40;99.90
3186;DHT22;1604;53.700;10.252;2023-04-01T03:27:25;9.40;99.90
3186;DHT22;1604;53.700;10.252;2023-04-01T03:30:27;9.40;99.90
3186;DHT22;1604;53.700;10.252;2023-04-01T03:33:30;9.40;99.90
3186;DHT22;1604;53.700;10.252;2023-04-01T03:36:32;9.40;99.90
3186;DHT22;1604;53.700;10.252;2023-04-01T03:39:36;9.40;99.90
3186;DHT22;1604;53.700;10.252;2023-04-01T03:42:38;9.40;99.90
3186;DHT22;1604;53.700;10.252;2023-04-01T03:45:44;9.40;99.90
3186;DHT22;1604;53.700;10.252;2023-04-01T03:48:46;9.40;99.90
3186;DHT22;1604;53.700;10.252;2023-04-01T03:51:48;9.40;99.90
3186;DHT22;1604;53.700;10.252;2023-04-01T03:54:51;9.40;99.90
3186;DHT22;1604;53.700;10.252;2023-04-01T03:57:53;9.40;99.90
3186;DHT22;1604;53.700;10.252;2023-04-01T04:00:55;9.40;99.90
3186;DHT22;1604;53.700;10.252;2023-04-01T04:03:57;9.40;99.90
3186;DHT22;1604;53.700;10.252;2023-04-01T04:06:59;9.40;99.90
3186;DHT22;1604;53.700;10.252;2023-04-01T04:10:03;9.40;99.90
3186;DHT22;1604;53.700;10.252;2023-04-01T04:13:05;9.40;99.90
3186;DHT22;1604;53.700;10.252;2023-04-01T04:16:07;9.40;99.90
3186;DHT22;1604;53.700;10.252;2023-04-01T04:19:10;9.20;99.90
3186;DHT22;1604;53.700;10.252;2023-04-01T04:22:12;9.10;99.90
3186;DHT22;1604;53.700;10.252;2023-04-01T04:25:15;8.90;99.90
3186;DHT22;1604;53.700;10.252;2023-04-01T04:28:17;8.80;99.90
3186;DHT22;1604;53.700;10.252;2023-04-01T04:31:20;8.70;99.90
3186;DHT22;1604;53.700;10.252;2023-04-01T04:34:23;8.60;99.90
3186;DHT22;1604;53.700;10.252;2023-04-01T04:37:26;8.50;99.90
3186;DHT22;1604;53.700;10.252;2023-04-01T04:40:29;8.50;99.90
3186;DHT22;1604;53.700;10.252;2023-04-01T04:43:31;8.40;99.90
3186;DHT22;1604;53.700;10.252;2023-04-01T04:46:33;8.30;99.90
3186;DHT22;1604;53.700;10.252;2023-04-01T04:49:36;8.20;99.90
3186;DHT22;1604;53.700;10.252;2023-04-01T04:52:38;8.10;99.90
3186;DHT22;1604;53.700;10.252;2023-04-01T04:55:44;8.10;99.90
3186;DHT22;1604;53.700;10.252;2023-04-01T04:58:46;8.00;99.90
3186;DHT22;1604;53.700;10.252;2023-04-01T05:01:48;7.90;99.90
3186;DHT22;1604;53.700;10.252;2023-04-01T05:04:50;7.80;99.90
3186;DHT22;1604;53.700;10.252;2023-04-01T05:07:52;7.80;99.90
3186;DHT22;1604;53.700;10.252;2023-04-01T05:10:56;7.70;99.90
3186;DHT22;1604;53.700;10.252;2023-04-01T05:13:58;7.60;99.90
3186;DHT22;1604;53.700;10.252;2023-04-01T05:16:59;7.60;99.90
3186;DHT22;1604;53.700;10.252;2023-04-01T05:20:01;7.50;99.90
3186;DHT22;1604;53.700;10.252;2023-04-01T05:23:04;7.50;99.90
3186;DHT22;1604;53.700;10.252;2023-04-01T05:26:10;7.40;99.90
3186;DHT22;1604;53.700;10.252;2023-04-01T05:29:12;7.30;99.90
3186;DHT22;1604;53.700;10.252;2023-04-01T05:32:14;7.20;99.90
3186;DHT22;1604;53.700;10.252;2023-04-01T05:35:16;7.10;99.90
3186;DHT22;1604;53.700;10.252;2023-04-01T05:38:18;7.10;99.90
3186;DHT22;1604;53.700;10.252;2023-04-01T05:41:24;7.00;99.90
3186;DHT22;1604;53.700;10.252;2023-04-01T05:44:26;7.00;99.90
3186;DHT22;1604;53.700;10.252;2023-04-01T05:47:28;6.90;99.90
3186;DHT22;1604;53.700;10.252;2023-04-01T05:50:30;6.90;99.90
3186;DHT22;1604;53.700;10.252;2023-04-01T05:53:32;6.80;99.90
3186;DHT22;1604;53.700;10.252;2023-04-01T05:56:37;6.70;99.90
3186;DHT22;1604;53.700;10.252;2023-04-01T05:59:39;6.70;99.90
3186;DHT22;1604;53.700;10.252;2023-04-01T06:02:41;6.70;99.90
3186;DHT22;1604;53.700;10.252;2023-04-01T06:05:44;6.60;99.90
3186;DHT22;1604;53.700;10.252;2023-04-01T06:08:45;6.60;99.90
3186;DHT22;1604;53.700;10.252;2023-04-01T06:12:02;6.60;99.90
3186;DHT22;1604;53.700;10.252;2023-04-01T06:15:17;6.60;99.90
3186;DHT22;1604;53.700;10.252;2023-04-01T06:18:48;6.50;99.90
3186;DHT22;1604;53.700;10.252;2023-04-01T06:22:13;6.50;99.90
3186;DHT22;1604;53.700;10.252;2023-04-01T06:38:51;6.40;99.90
3186;DHT22;1604;53.700;10.252;2023-04-01T06:51:38;6.30;99.90
3186;DHT22;1604;53.700;10.252;2023-04-01T06:54:44;6.30;99.90
3186;DHT22;1604;53.700;10.252;2023-04-01T06:57:49;6.20;99.90
3186;DHT22;1604;53.700;10.252;2023-04-01T07:00:54;6.20;99.90
3186;DHT22;1604;53.700;10.252;2023-04-01T07:04:00;6.20;99.90
3186;DHT22;1604;53.700;10.252;2023-04-01T07:07:05;6.10;99.90
3186;DHT22;1604;53.700;10.252;2023-04-01T07:10:17;6.10;99.90
3186;DHT22;1604;53.700;10.252;2023-04-01T07:13:23;6.10;99.90
3186;DHT22;1604;53.700;10.252;2023-04-01T07:16:29;6.10;99.90
3186;DHT22;1604;53.700;10.252;2023-04-01T07:19:36;6.10;99.90
3186;DHT22;1604;53.700;10.252;2023-04-01T07:22:43;6.10;99.90
3186;DHT22;1604;53.700;10.252;2023-04-01T07:28:58;6.00;99.90
3186;DHT22;1604;53.700;10.252;2023-04-01T07:32:10;6.00;99.90
3186;DHT22;1604;53.700;10.252;2023-04-01T07:35:23;6.00;99.90
3186;DHT22;1604;53.700;10.252;2023-04-01T07:38:31;6.00;99.90
3186;DHT22;1604;53.700;10.252;2023-04-01T07:41:45;6.10;99.90
3186;DHT22;1604;53.700;10.252;2023-04-01T07:44:57;6.10;99.90
3186;DHT22;1604;53.700;10.252;2023-04-01T07:48:10;6.00;99.90
3186;DHT22;1604;53.700;10.252;2023-04-01T07:51:18;6.00;99.90
3186;DHT22;1604;53.700;10.252;2023-04-01T07:54:29;6.00;99.90
3186;DHT22;1604;53.700;10.252;2023-04-01T07:57:38;6.00;99.90
3186;DHT22;1604;53.700;10.252;2023-04-01T08:00:49;6.00;99.90
3186;DHT22;1604;53.700;10.252;2023-04-01T08:04:14;6.00;99.90
3186;DHT22;1604;53.700;10.252;2023-04-01T08:07:20;6.00;99.90
3186;DHT22;1604;53.700;10.252;2023-04-01T08:10:30;6.00;99.90
3186;DHT22;1604;53.700;10.252;2023-04-01T08:13:38;6.00;99.90
3186;DHT22;1604;53.700;10.252;2023-04-01T08:16:53;6.00;99.90
3186;DHT22;1604;53.700;10.252;2023-04-01T08:20:14;6.00;99.90
3186;DHT22;1604;53.700;10.252;2023-04-01T08:23:21;5.90;99.90
3186;DHT22;1604;53.700;10.252;2023-04-01T08:26:32;6.00;99.90
3186;DHT22;1604;53.700;10.252;2023-04-01T08:29:38;6.00;99.90
3186;DHT22;1604;53.700;10.252;2023-04-01T08:32:49;6.00;99.90
3186;DHT22;1604;53.700;10.252;2023-04-01T08:35:54;6.00;99.90
3186;DHT22;1604;53.700;10.252;2023-04-01T08:39:02;6.00;99.90
3186;DHT22;1604;53.700;10.252;2023-04-01T08:42:31;6.00;99.90
3186;DHT22;1604;53.700;10.252;2023-04-01T08:45:44;5.90;99.90
3186;DHT22;1604;53.700;10.252;2023-04-01T08:49:02;6.00;99.90
3186;DHT22;1604;53.700;10.252;2023-04-01T08:52:29;6.00;99.90
3186;DHT22;1604;53.700;10.252;2023-04-01T08:55:44;6.00;99.90
3186;DHT22;1604;53.700;10.252;2023-04-01T08:59:17;6.00;99.90
3186;DHT22;1604;53.700;10.252;2023-04-01T09:02:53;6.00;99.90
3186;DHT22;1604;53.700;10.252;2023-04-01T09:17:33;6.00;99.90
3186;DHT22;1604;53.700;10.252;2023-04-01T09:20:52;6.00;99.90
3186;DHT22;1604;53.700;10.252;2023-04-01T09:24:24;6.10;99.90
3186;DHT22;1604;53.700;10.252;2023-04-01T09:27:29;6.10;99.90
3186;DHT22;1604;53.700;10.252;2023-04-01T09:30:46;6.10;99.90
3186;DHT22;1604;53.700;10.252;2023-04-01T09:34:05;6.10;99.90
3186;DHT22;1604;53.700;10.252;2023-04-01T09:37:19;6.10;99.90
3186;DHT22;1604;53.700;10.252;2023-04-01T09:40:31;6.10;99.90
3186;DHT22;1604;53.700;10.252;2023-04-01T09:43:58;6.10;99.90
3186;DHT22;1604;53.700;10.252;2023-04-01T09:47:21;6.20;99.90
3186;DHT22;1604;53.700;10.252;2023-04-01T09:50:35;6.20;99.90
3186;DHT22;1604;53.700;10.252;2023-04-01T09:53:48;6.20;99.90
3186;DHT22;1604;53.700;10.252;2023-04-01T09:57:29;6.20;99.90
3186;DHT22;1604;53.700;10.252;2023-04-01T10:04:31;6.20;99.90
3186;DHT22;1604;53.700;10.252;2023-04-01T10:08:08;6.20;99.90
3186;DHT22;1604;53.700;10.252;2023-04-01T10:11:58;6.20;99.90
3186;DHT22;1604;53.700;10.252;2023-04-01T10:15:26;6.30;99.90
3186;DHT22;1604;53.700;10.252;2023-04-01T10:18:52;6.30;99.90
3186;DHT22;1604;53.700;10.252;2023-04-01T10:22:27;6.30;99.90
3186;DHT22;1604;53.700;10.252;2023-04-01T10:29:22;6.30;99.90
3186;DHT22;1604;53.700;10.252;2023-04-01T10:33:06;6.30;99.90
3186;DHT22;1604;53.700;10.252;2023-04-01T10:36:50;6.40;99.90
3186;DHT22;1604;53.700;10.252;2023-04-01T10:40:26;6.30;99.90
3186;DHT22;1604;53.700;10.252;2023-04-01T10:47:50;6.40;99.90
3186;DHT22;1604;53.700;10.252;2023-04-01T10:51:10;6.40;99.90
3186;DHT22;1604;53.700;10.252;2023-04-01T10:54:40;6.40;99.90
3186;DHT22;1604;53.700;10.252;2023-04-01T10:58:02;6.50;99.90
3186;DHT22;1604;53.700;10.252;2023-04-01T11:01:35;6.40;99.90
3186;DHT22;1604;53.700;10.252;2023-04-01T11:12:19;6.40;99.90
3186;DHT22;1604;53.700;10.252;2023-04-01T11:15:51;6.30;99.90
3186;DHT22;1604;53.700;10.252;2023-04-01T11:23:08;6.30;99.90
3186;DHT22;1604;53.700;10.252;2023-04-01T11:26:26;6.20;99.90
3186;DHT22;1604;53.700;10.252;2023-04-01T11:29:40;6.10;99.90
3186;DHT22;1604;53.700;10.252;2023-04-01T11:32:49;6.10;99.90
3186;DHT22;1604;53.700;10.252;2023-04-01T11:36:10;6.10;99.90
3186;DHT22;1604;53.700;10.252;2023-04-01T11:39:22;6.10;99.90
3186;DHT22;1604;53.700;10.252;2023-04-01T11:42:34;6.10;99.90
3186;DHT22;1604;53.700;10.252;2023-04-01T11:45:45;6.00;99.90
3186;DHT22;1604;53.700;10.252;2023-04-01T11:49:00;6.00;99.90
3186;DHT22;1604;53.700;10.252;2023-04-01T11:52:17;5.90;99.90
3186;DHT22;1604;53.700;10.252;2023-04-01T11:55:28;5.90;99.90
3186;DHT22;1604;53.700;10.252;2023-04-01T11:59:04;5.80;99.90
3186;DHT22;1604;53.700;10.252;2023-04-01T12:02:16;5.90;99.90
3186;DHT22;1604;53.700;10.252;2023-04-01T12:05:37;5.90;99.90
3186;DHT22;1604;53.700;10.252;2023-04-01T12:08:48;5.90;99.90
3186;DHT22;1604;53.700;10.252;2023-04-01T12:12:00;6.00;99.90
3186;DHT22;1604;53.700;10.252;2023-04-01T12:15:16;6.00;99.90
3186;DHT22;1604;53.700;10.252;2023-04-01T12:18:26;5.90;99.90
3186;DHT22;1604;53.700;10.252;2023-04-01T12:21:36;6.00;99.90
3186;DHT22;1604;53.700;10.252;2023-04-01T12:24:45;5.90;99.90
3186;DHT22;1604;53.700;10.252;2023-04-01T12:27:55;5.80;99.90
3186;DHT22;1604;53.700;10.252;2023-04-01T12:31:09;5.80;99.90
3186;DHT22;1604;53.700;10.252;2023-04-01T12:37:54;5.90;99.90
3186;DHT22;1604;53.700;10.252;2023-04-01T12:41:09;5.90;99.90
3186;DHT22;1604;53.700;10.252;2023-04-01T12:44:29;5.90;99.90
3186;DHT22;1604;53.700;10.252;2023-04-01T12:47:54;5.90;99.90
3186;DHT22;1604;53.700;10.252;2023-04-01T12:54:56;5.80;99.90
3186;DHT22;1604;53.700;10.252;2023-04-01T13:02:00;5.80;99.90
3186;DHT22;1604;53.700;10.252;2023-04-01T13:05:24;5.80;99.90
3186;DHT22;1604;53.700;10.252;2023-04-01T13:08:37;5.80;99.90
3186;DHT22;1604;53.700;10.252;2023-04-01T13:11:52;5.80;99.90
3186;DHT22;1604;53.700;10.252;2023-04-01T13:15:23;5.80;99.90
3186;DHT22;1604;53.700;10.252;2023-04-01T13:18:35;5.70;99.90
3186;DHT22;1604;53.700;10.252;2023-04-01T13:21:51;5.70;99.90
3186;DHT22;1604;53.700;10.252;2023-04-01T13:24:59;5.70;99.90
3186;DHT22;1604;53.700;10.252;2023-04-01T13:28:13;5.70;99.90
3186;DHT22;1604;53.700;10.252;2023-04-01T13:31:27;5.70;99.90
3186;DHT22;1604;53.700;10.252;2023-04-01T13:34:41;5.70;99.90
3186;DHT22;1604;53.700;10.252;2023-04-01T13:37:54;5.70;99.90
3186;DHT22;1604;53.700;10.252;2023-04-01T13:41:07;5.70;99.90
3186;DHT22;1604;53.700;10.252;2023-04-01T13:44:17;5.60;99.90
3186;DHT22;1604;53.700;10.252;2023-04-01T13:47:34;5.60;99.90
3186;DHT22;1604;53.700;10.252;2023-04-01T13:50:58;5.70;99.90
3186;DHT22;1604;53.700;10.252;2023-04-01T13:54:29;5.70;99.90
3186;DHT22;1604;53.700;10.252;2023-04-01T13:57:58;5.70;99.90
3186;DHT22;1604;53.700;10.252;2023-04-01T14:01:10;5.70;99.90
3186;DHT22;1604;53.700;10.252;2023-04-01T14:04:42;5.70;99.90
3186;DHT22;1604;53.700;10.252;2023-04-01T14:07:58;5.70;99.90
3186;DHT22;1604;53.700;10.252;2023-04-01T14:11:10;5.60;99.90
3186;DHT22;1604;53.700;10.252;2023-04-01T14:14:21;5.60;99.90
3186;DHT22;1604;53.700;10.252;2023-04-01T14:17:41;5.60;99.90
3186;DHT22;1604;53.700;10.252;2023-04-01T14:20:51;5.50;99.90
3186;DHT22;1604;53.700;10.252;2023-04-01T14:24:14;5.50;99.90
3186;DHT22;1604;53.700;10.252;2023-04-01T14:34:52;5.50;99.90
3186;DHT22;1604;53.700;10.252;2023-04-01T14:38:04;5.50;99.90
3186;DHT22;1604;53.700;10.252;2023-04-01T14:41:18;5.50;99.90
3186;DHT22;1604;53.700;10.252;2023-04-01T14:44:44;5.50;99.90
3186;DHT22;1604;53.700;10.252;2023-04-01T14:47:53;5.50;99.90
3186;DHT22;1604;53.700;10.252;2023-04-01T14:51:03;5.40;99.90
3186;DHT22;1604;53.700;10.252;2023-04-01T14:54:14;5.40;99.90
3186;DHT22;1604;53.700;10.252;2023-04-01T14:57:24;5.40;99.90
3186;DHT22;1604;53.700;10.252;2023-04-01T15:00:28;5.30;99.90
3186;DHT22;1604;53.700;10.252;2023-04-01T15:03:51;5.30;99.90
3186;DHT22;1604;53.700;10.252;2023-04-01T15:14:28;5.30;99.90
3186;DHT22;1604;53.700;10.252;2023-04-01T15:17:45;5.20;99.90
3186;DHT22;1604;53.700;10.252;2023-04-01T15:21:09;5.20;99.90
3186;DHT22;1604;53.700;10.252;2023-04-01T15:24:20;5.20;99.90
3186;DHT22;1604;53.700;10.252;2023-04-01T15:27:32;5.10;99.90
3186;DHT22;1604;53.700;10.252;2023-04-01T15:30:46;5.10;99.90
3186;DHT22;1604;53.700;10.252;2023-04-01T15:34:07;5.10;99.90
3186;DHT22;1604;53.700;10.252;2023-04-01T15:37:20;5.00;99.90
3186;DHT22;1604;53.700;10.252;2023-04-01T15:40:28;5.00;99.90
3186;DHT22;1604;53.700;10.252;2023-04-01T15:43:40;5.00;99.90
3186;DHT22;1604;53.700;10.252;2023-04-01T15:46:46;5.00;99.90
3186;DHT22;1604;53.700;10.252;2023-04-01T15:49:55;5.00;99.90
3186;DHT22;1604;53.700;10.252;2023-04-01T15:53:07;4.90;99.90
3186;DHT22;1604;53.700;10.252;2023-04-01T15:56:30;5.00;99.90
3186;DHT22;1604;53.700;10.252;2023-04-01T15:59:53;4.90;99.90
3186;DHT22;1604;53.700;10.252;2023-04-01T16:03:14;4.90;99.90
3186;DHT22;1604;53.700;10.252;2023-04-01T16:06:43;4.90;99.90
3186;DHT22;1604;53.700;10.252;2023-04-01T16:13:24;4.90;99.90
3186;DHT22;1604;53.700;10.252;2023-04-01T16:16:39;4.80;99.90
3186;DHT22;1604;53.700;10.252;2023-04-01T16:19:53;4.80;99.90
3186;DHT22;1604;53.700;10.252;2023-04-01T16:23:01;4.80;99.90
3186;DHT22;1604;53.700;10.252;2023-04-01T16:26:08;4.80;99.90
3186;DHT22;1604;53.700;10.252;2023-04-01T16:29:19;4.70;99.90
3186;DHT22;1604;53.700;10.252;2023-04-01T16:32:31;4.70;99.90
3186;DHT22;1604;53.700;10.252;2023-04-01T16:35:42;4.70;99.90
3186;DHT22;1604;53.700;10.252;2023-04-01T16:38:51;4.70;99.90
3186;DHT22;1604;53.700;10.252;2023-04-01T16:45:33;4.60;99.90
3186;DHT22;1604;53.700;10.252;2023-04-01T16:48:49;4.60;99.90
3186;DHT22;1604;53.700;10.252;2023-04-01T16:52:04;4.60;99.90
3186;DHT22;1604;53.700;10.252;2023-04-01T16:55:16;4.60;99.90
3186;DHT22;1604;53.700;10.252;2023-04-01T16:58:24;4.50;99.90
3186;DHT22;1604;53.700;10.252;2023-04-01T17:01:30;4.50;99.90
3186;DHT22;1604;53.700;10.252;2023-04-01T17:04:38;4.50;99.90
3186;DHT22;1604;53.700;10.252;2023-04-01T17:08:01;4.50;99.90
3186;DHT22;1604;53.700;10.252;2023-04-01T17:11:11;4.50;99.90
3186;DHT22;1604;53.700;10.252;2023-04-01T17:14:22;4.40;99.90
3186;DHT22;1604;53.700;10.252;2023-04-01T17:17:32;4.40;99.90
3186;DHT22;1604;53.700;10.252;2023-04-01T17:20:42;4.40;99.90
3186;DHT22;1604;53.700;10.252;2023-04-01T17:23:50;4.40;99.90
3186;DHT22;1604;53.700;10.252;2023-04-01T17:26:58;4.30;99.90
3186;DHT22;1604;53.700;10.252;2023-04-01T17:30:13;4.40;99.90
3186;DHT22;1604;53.700;10.252;2023-04-01T17:33:41;4.30;99.90
3186;DHT22;1604;53.700;10.252;2023-04-01T17:36:57;4.30;99.90
3186;DHT22;1604;53.700;10.252;2023-04-01T17:40:15;4.40;99.90
3186;DHT22;1604;53.700;10.252;2023-04-01T17:43:27;4.30;99.90
3186;DHT22;1604;53.700;10.252;2023-04-01T17:46:40;4.40;99.90
3186;DHT22;1604;53.700;10.252;2023-04-01T17:49:55;4.30;99.90
3186;DHT22;1604;53.700;10.252;2023-04-01T17:53:17;4.30;99.90
3186;DHT22;1604;53.700;10.252;2023-04-01T17:56:37;4.20;99.90
3186;DHT22;1604;53.700;10.252;2023-04-01T17:59:51;4.20;99.90
3186;DHT22;1604;53.700;10.252;2023-04-01T18:03:12;4.20;99.90
3186;DHT22;1604;53.700;10.252;2023-04-01T18:06:24;4.20;99.90
3186;DHT22;1604;53.700;10.252;2023-04-01T18:09:39;4.10;99.90
3186;DHT22;1604;53.700;10.252;2023-04-01T18:13:14;4.10;99.90
3186;DHT22;1604;53.700;10.252;2023-04-01T18:16:30;4.00;99.90
3186;DHT22;1604;53.700;10.252;2023-04-01T18:19:42;4.00;99.90
3186;DHT22;1604;53.700;10.252;2023-04-01T18:22:53;4.00;99.90
3186;DHT22;1604;53.700;10.252;2023-04-01T18:26:04;4.00;99.90
3186;DHT22;1604;53.700;10.252;2023-04-01T18:29:24;4.00;99.90
3186;DHT22;1604;53.700;10.252;2023-04-01T18:32:33;3.90;99.90
3186;DHT22;1604;53.700;10.252;2023-04-01T18:35:48;3.90;99.90
3186;DHT22;1604;53.700;10.252;2023-04-01T18:38:55;3.90;99.90
3186;DHT22;1604;53.700;10.252;2023-04-01T18:42:06;3.80;99.90
3186;DHT22;1604;53.700;10.252;2023-04-01T18:45:18;3.80;99.90
3186;DHT22;1604;53.700;10.252;2023-04-01T18:48:38;3.80;99.90
3186;DHT22;1604;53.700;10.252;2023-04-01T18:51:47;3.80;99.90
3186;DHT22;1604;53.700;10.252;2023-04-01T18:55:30;3.80;99.90
3186;DHT22;1604;53.700;10.252;2023-04-01T18:58:35;3.80;99.90
3186;DHT22;1604;53.700;10.252;2023-04-01T19:01:42;3.80;99.90
3186;DHT22;1604;53.700;10.252;2023-04-01T19:04:50;3.70;99.90
3186;DHT22;1604;53.700;10.252;2023-04-01T19:07:55;3.70;99.90
3186;DHT22;1604;53.700;10.252;2023-04-01T19:11:07;3.70;99.90
3186;DHT22;1604;53.700;10.252;2023-04-01T19:14:16;3.70;99.90
3186;DHT22;1604;53.700;10.252;2023-04-01T19:17:31;3.70;99.90
3186;DHT22;1604;53.700;10.252;2023-04-01T19:20:37;3.60;99.90
3186;DHT22;1604;53.700;10.252;2023-04-01T19:27:25;3.50;99.90
3186;DHT22;1604;53.700;10.252;2023-04-01T19:30:47;3.60;99.90
3186;DHT22;1604;53.700;10.252;2023-04-01T19:34:06;3.60;99.90
3186;DHT22;1604;53.700;10.252;2023-04-01T19:37:22;3.50;99.90
3186;DHT22;1604;53.700;10.252;2023-04-01T19:40:39;3.50;99.90
3186;DHT22;1604;53.700;10.252;2023-04-01T19:43:59;3.50;99.90
3186;DHT22;1604;53.700;10.252;2023-04-01T19:47:08;3.50;99.90
3186;DHT22;1604;53.700;10.252;2023-04-01T19:50:22;3.40;99.90
3186;DHT22;1604;53.700;10.252;2023-04-01T19:53:34;3.30;99.90
3186;DHT22;1604;53.700;10.252;2023-04-01T19:56:43;3.30;99.90
3186;DHT22;1604;53.700;10.252;2023-04-01T19:59:50;3.30;99.90
3186;DHT22;1604;53.700;10.252;2023-04-01T20:03:07;3.20;99.90
3186;DHT22;1604;53.700;10.252;2023-04-01T20:06:21;3.10;99.90
3186;DHT22;1604;53.700;10.252;2023-04-01T20:12:57;2.90;99.90
3186;DHT22;1604;53.700;10.252;2023-04-01T20:16:04;2.80;99.90
3186;DHT22;1604;53.700;10.252;2023-04-01T20:19:10;2.70;99.90
3186;DHT22;1604;53.700;10.252;2023-04-01T20:22:25;2.60;99.90
3186;DHT22;1604;53.700;10.252;2023-04-01T20:25:33;2.60;99.90
3186;DHT22;1604;53.700;10.252;2023-04-01T20:28:43;2.50;99.90
3186;DHT22;1604;53.700;10.252;2023-04-01T20:31:56;2.40;99.90
3186;DHT22;1604;53.700;10.252;2023-04-01T20:35:18;2.30;99.90
3186;DHT22;1604;53.700;10.252;2023-04-01T20:42:02;2.20;99.90
3186;DHT22;1604;53.700;10.252;2023-04-01T20:45:26;2.20;99.90
3186;DHT22;1604;53.700;10.252;2023-04-01T20:48:58;2.10;99.90
3186;DHT22;1604;53.700;10.252;2023-04-01T20:52:17;2.10;99.90
3186;DHT22;1604;53.700;10.252;2023-04-01T20:55:38;2.10;99.90
3186;DHT22;1604;53.700;10.252;2023-04-01T20:58:49;2.10;99.90
3186;DHT22;1604;53.700;10.252;2023-04-01T21:02:02;2.10;99.90
3186;DHT22;1604;53.700;10.252;2023-04-01T21:05:35;2.10;99.90
3186;DHT22;1604;53.700;10.252;2023-04-01T21:08:59;2.10;99.90
3186;DHT22;1604;53.700;10.252;2023-04-01T21:12:17;2.10;99.90
3186;DHT22;1604;53.700;10.252;2023-04-01T21:15:33;2.10;99.90
3186;DHT22;1604;53.700;10.252;2023-04-01T21:18:50;2.10;99.90
3186;DHT22;1604;53.700;10.252;2023-04-01T21:25:44;2.00;99.90
3186;DHT22;1604;53.700;10.252;2023-04-01T21:29:07;2.00;99.90
3186;DHT22;1604;53.700;10.252;2023-04-01T21:32:24;1.90;99.90
3186;DHT22;1604;53.700;10.252;2023-04-01T21:35:37;1.90;99.90
3186;DHT22;1604;53.700;10.252;2023-04-01T21:38:56;1.80;99.90
3186;DHT22;1604;53.700;10.252;2023-04-01T21:42:18;1.80;99.90
3186;DHT22;1604;53.700;10.252;2023-04-01T21:45:39;1.70;99.90
3186;DHT22;1604;53.700;10.252;2023-04-01T21:49:04;1.60;99.90
3186;DHT22;1604;53.700;10.252;2023-04-01T21:56:11;1.50;99.90
3186;DHT22;1604;53.700;10.252;2023-04-01T22:00:00;1.50;99.90
3186;DHT22;1604;53.700;10.252;2023-04-01T22:03:35;1.50;99.90
3186;DHT22;1604;53.700;10.252;2023-04-01T22:06:44;1.50;99.90
3186;DHT22;1604;53.700;10.252;2023-04-01T22:09:58;1.40;99.90
3186;DHT22;1604;53.700;10.252;2023-04-01T22:13:07;1.50;99.90
3186;DHT22;1604;53.700;10.252;2023-04-01T22:16:23;1.50;99.90
3186;DHT22;1604;53.700;10.252;2023-04-01T22:19:36;1.40;99.90
3186;DHT22;1604;53.700;10.252;2023-04-01T22:22:56;1.40;99.90
3186;DHT22;1604;53.700;10.252;2023-04-01T22:26:06;1.40;99.90
3186;DHT22;1604;53.700;10.252;2023-04-01T22:29:17;1.30;99.90
3186;DHT22;1604;53.700;10.252;2023-04-01T22:32:24;1.30;99.90
3186;DHT22;1604;53.700;10.252;2023-04-01T22:35:37;1.20;99.90
3186;DHT22;1604;53.700;10.252;2023-04-01T22:38:55;1.20;99.90
3186;DHT22;1604;53.700;10.252;2023-04-01T22:42:17;1.20;99.90
3186;DHT22;1604;53.700;10.252;2023-04-01T22:45:57;1.30;99.90
3186;DHT22;1604;53.700;10.252;2023-04-01T22:49:05;1.20;99.90
3186;DHT22;1604;53.700;10.252;2023-04-01T22:52:16;1.30;99.90
3186;DHT22;1604;53.700;10.252;2023-04-01T22:55:23;1.20;99.90